createdAt,value
2017-07-21T00:00:15.037Z,966.3
2017-07-21T00:01:15.035Z,966.34
2017-07-21T00:02:15.033Z,966.37
2017-07-21T00:03:15.031Z,966.41
2017-07-21T00:04:15.031Z,966.45
2017-07-21T00:05:15.027Z,966.45
2017-07-21T00:06:15.026Z,966.43
2017-07-21T00:07:15.027Z,966.42
2017-07-21T00:08:15.024Z,966.43
2017-07-21T00:09:15.021Z,966.39
2017-07-21T00:10:15.020Z,966.4
2017-07-21T00:11:15.019Z,966.42
2017-07-21T00:12:15.017Z,966.42
2017-07-21T00:13:15.013Z,966.45
2017-07-21T00:14:15.011Z,966.48
2017-07-21T00:15:15.011Z,966.48
2017-07-21T00:16:15.009Z,966.51
2017-07-21T00:17:15.007Z,966.5
2017-07-21T00:18:15.005Z,966.51
2017-07-21T00:19:15.004Z,966.51
2017-07-21T00:20:15.002Z,966.49
2017-07-21T00:21:15.000Z,966.49
2017-07-21T00:22:15.098Z,966.46
2017-07-21T00:23:14.997Z,966.43
2017-07-21T00:24:14.993Z,966.41
2017-07-21T00:25:14.992Z,966.41
2017-07-21T00:26:14.993Z,966.43
2017-07-21T00:27:14.988Z,966.4
2017-07-21T00:28:14.987Z,966.42
2017-07-21T00:29:14.986Z,966.42
2017-07-21T00:30:14.984Z,966.4
2017-07-21T00:31:14.981Z,966.41
2017-07-21T00:32:14.981Z,966.38
2017-07-21T00:33:14.978Z,966.38
2017-07-21T00:34:14.977Z,966.41
2017-07-21T00:35:14.974Z,966.39
2017-07-21T00:36:14.973Z,966.35
2017-07-21T00:37:14.971Z,966.36
2017-07-21T00:38:14.968Z,966.34
2017-07-21T00:39:14.967Z,966.35
2017-07-21T00:40:14.966Z,966.36
2017-07-21T00:41:14.964Z,966.33
2017-07-21T00:42:14.960Z,966.31
2017-07-21T00:43:14.959Z,966.33
2017-07-21T00:44:14.958Z,966.33
2017-07-21T00:45:14.957Z,966.31
2017-07-21T00:46:14.955Z,966.26
2017-07-21T00:47:14.954Z,966.27
2017-07-21T00:48:14.950Z,966.26
2017-07-21T00:49:14.948Z,966.25
2017-07-21T00:50:14.946Z,966.26
2017-07-21T00:51:14.977Z,966.23
2017-07-21T00:52:14.944Z,966.24
2017-07-21T00:53:14.941Z,966.21
2017-07-21T00:54:14.940Z,966.17
2017-07-21T00:55:14.938Z,966.19
2017-07-21T00:56:15.036Z,966.18
2017-07-21T00:57:14.933Z,966.19
2017-07-21T00:58:14.936Z,966.23
2017-07-21T00:59:15.031Z,966.22
2017-07-21T01:00:14.928Z,966.23
2017-07-21T01:01:14.927Z,966.25
2017-07-21T01:02:14.924Z,966.24
2017-07-21T01:03:15.023Z,966.24
2017-07-21T01:04:14.921Z,966.25
2017-07-21T01:05:14.918Z,966.22
2017-07-21T01:06:14.918Z,966.19
2017-07-21T01:07:14.915Z,966.19
2017-07-21T01:08:14.914Z,966.18
2017-07-21T01:09:14.911Z,966.14
2017-07-21T01:10:14.913Z,966.15
2017-07-21T01:11:14.907Z,966.15
2017-07-21T01:12:14.905Z,966.18
2017-07-21T01:13:14.905Z,966.17
2017-07-21T01:14:14.903Z,966.17
2017-07-21T01:15:14.903Z,966.16
2017-07-21T01:16:14.898Z,966.15
2017-07-21T01:17:14.897Z,966.14
2017-07-21T01:18:14.896Z,966.13
2017-07-21T01:19:14.893Z,966.11
2017-07-21T01:20:14.891Z,966.11
2017-07-21T01:21:14.989Z,966.12
2017-07-21T01:22:14.886Z,966.1
2017-07-21T01:23:14.885Z,966.1
2017-07-21T01:24:14.883Z,966.09
2017-07-21T01:25:14.887Z,966.15
2017-07-21T01:26:14.878Z,966.12
2017-07-21T01:27:14.878Z,966.11
2017-07-21T01:28:14.877Z,966.1
2017-07-21T01:29:14.875Z,966.07
2017-07-21T01:30:14.876Z,966.07
2017-07-21T01:31:14.870Z,966.07
2017-07-21T01:32:14.869Z,966.05
2017-07-21T01:33:14.865Z,966.05
2017-07-21T01:34:14.862Z,966.05
2017-07-21T01:35:14.862Z,966.04
2017-07-21T01:36:14.862Z,966.06
2017-07-21T01:37:14.858Z,966.03
2017-07-21T01:38:14.857Z,966.05
2017-07-21T01:39:14.854Z,966.06
2017-07-21T01:40:14.855Z,966.07
2017-07-21T01:41:14.851Z,966.08
2017-07-21T01:42:14.849Z,966.04
2017-07-21T01:43:14.848Z,965.99
2017-07-21T01:44:14.847Z,965.97
2017-07-21T01:45:14.845Z,965.96
2017-07-21T01:46:14.844Z,965.97
2017-07-21T01:47:14.841Z,965.98
2017-07-21T01:48:14.838Z,966
2017-07-21T01:49:14.838Z,966
2017-07-21T01:50:14.936Z,966
2017-07-21T01:51:14.833Z,966.03
2017-07-21T01:52:14.831Z,965.99
2017-07-21T01:53:14.829Z,966.03
2017-07-21T01:54:14.828Z,966.02
2017-07-21T01:55:14.825Z,965.99
2017-07-21T01:56:14.825Z,965.99
2017-07-21T01:57:14.820Z,965.99
2017-07-21T01:58:14.822Z,966.01
2017-07-21T01:59:14.817Z,966.01
2017-07-21T02:00:14.816Z,966.05
2017-07-21T02:01:14.815Z,966.07
2017-07-21T02:02:14.813Z,966.02
2017-07-21T02:03:14.811Z,966.02
2017-07-21T02:04:14.808Z,965.98
2017-07-21T02:05:14.806Z,966.01
2017-07-21T02:06:14.804Z,965.96
2017-07-21T02:07:14.801Z,965.96
2017-07-21T02:08:14.801Z,965.97
2017-07-21T02:09:14.949Z,965.96
2017-07-21T02:10:14.796Z,965.99
2017-07-21T02:11:14.795Z,966.01
2017-07-21T02:12:14.793Z,966.03
2017-07-21T02:13:14.790Z,966.01
2017-07-21T02:14:14.788Z,966.03
2017-07-21T02:15:14.787Z,966.06
2017-07-21T02:16:14.786Z,966.02
2017-07-21T02:17:14.783Z,966.02
2017-07-21T02:18:14.780Z,965.98
2017-07-21T02:19:14.779Z,965.95
2017-07-21T02:20:14.877Z,965.95
2017-07-21T02:21:14.776Z,965.87
2017-07-21T02:22:14.773Z,965.88
2017-07-21T02:23:14.772Z,965.87
2017-07-21T02:24:14.870Z,965.88
2017-07-21T02:25:14.768Z,965.84
2017-07-21T02:26:14.765Z,965.85
2017-07-21T02:27:14.764Z,965.82
2017-07-21T02:28:14.762Z,965.82
2017-07-21T02:29:14.760Z,965.82
2017-07-21T02:30:14.758Z,965.79
2017-07-21T02:31:14.756Z,965.77
2017-07-21T02:32:14.855Z,965.76
2017-07-21T02:33:14.753Z,965.76
2017-07-21T02:34:14.750Z,965.76
2017-07-21T02:35:14.746Z,965.76
2017-07-21T02:36:14.746Z,965.75
2017-07-21T02:37:14.743Z,965.78
2017-07-21T02:38:14.743Z,965.75
2017-07-21T02:39:14.739Z,965.77
2017-07-21T02:40:14.738Z,965.76
2017-07-21T02:41:14.738Z,965.77
2017-07-21T02:42:14.735Z,965.82
2017-07-21T02:43:14.732Z,965.84
2017-07-21T02:44:14.730Z,965.82
2017-07-21T02:45:14.727Z,965.79
2017-07-21T02:46:14.727Z,965.83
2017-07-21T02:47:14.723Z,965.83
2017-07-21T02:48:14.721Z,965.84
2017-07-21T02:49:14.721Z,965.87
2017-07-21T02:50:14.717Z,965.85
2017-07-21T02:51:14.716Z,965.88
2017-07-21T02:52:14.714Z,965.87
2017-07-21T02:53:14.811Z,965.85
2017-07-21T02:54:14.710Z,965.86
2017-07-21T02:55:14.708Z,965.86
2017-07-21T02:56:14.809Z,965.88
2017-07-21T02:57:14.704Z,965.84
2017-07-21T02:58:14.706Z,965.82
2017-07-21T02:59:14.699Z,965.84
2017-07-21T03:00:14.697Z,965.86
2017-07-21T03:01:14.695Z,965.89
2017-07-21T03:02:14.694Z,965.91
2017-07-21T03:03:14.692Z,965.88
2017-07-21T03:04:14.689Z,965.9
2017-07-21T03:05:14.688Z,965.88
2017-07-21T03:06:14.685Z,965.9
2017-07-21T03:07:14.683Z,965.86
2017-07-21T03:08:14.681Z,965.86
2017-07-21T03:09:14.678Z,965.9
2017-07-21T03:10:14.677Z,965.88
2017-07-21T03:11:14.676Z,965.83
2017-07-21T03:12:14.673Z,965.83
2017-07-21T03:13:14.672Z,965.8
2017-07-21T03:14:14.668Z,965.81
2017-07-21T03:15:14.668Z,965.79
2017-07-21T03:16:14.664Z,965.8
2017-07-21T03:17:14.664Z,965.8
2017-07-21T03:18:14.663Z,965.79
2017-07-21T03:19:14.661Z,965.77
2017-07-21T03:20:14.658Z,965.73
2017-07-21T03:21:14.656Z,965.71
2017-07-21T03:22:14.653Z,965.71
2017-07-21T03:23:14.653Z,965.69
2017-07-21T03:24:14.649Z,965.72
2017-07-21T03:25:14.647Z,965.71
2017-07-21T03:26:14.645Z,965.71
2017-07-21T03:27:14.643Z,965.67
2017-07-21T03:28:14.640Z,965.69
2017-07-21T03:29:14.638Z,965.67
2017-07-21T03:30:14.637Z,965.68
2017-07-21T03:31:14.637Z,965.67
2017-07-21T03:32:14.631Z,965.69
2017-07-21T03:33:14.632Z,965.66
2017-07-21T03:34:14.630Z,965.64
2017-07-21T03:35:14.626Z,965.63
2017-07-21T03:36:14.625Z,965.64
2017-07-21T03:37:14.624Z,965.65
2017-07-21T03:38:14.621Z,965.62
2017-07-21T03:39:14.618Z,965.62
2017-07-21T03:40:14.616Z,965.62
2017-07-21T03:41:14.614Z,965.62
2017-07-21T03:42:14.612Z,965.65
2017-07-21T03:43:14.609Z,965.68
2017-07-21T03:44:14.608Z,965.66
2017-07-21T03:45:14.707Z,965.66
2017-07-21T03:46:14.603Z,965.67
2017-07-21T03:47:14.602Z,965.69
2017-07-21T03:48:14.600Z,965.7
2017-07-21T03:49:14.597Z,965.71
2017-07-21T03:50:14.595Z,965.68
2017-07-21T03:51:14.594Z,965.67
2017-07-21T03:52:14.589Z,965.67
2017-07-21T03:53:14.588Z,965.67
2017-07-21T03:54:14.587Z,965.7
2017-07-21T03:55:14.585Z,965.67
2017-07-21T03:56:14.581Z,965.74
2017-07-21T03:57:14.580Z,965.74
2017-07-21T03:58:14.578Z,965.75
2017-07-21T03:59:14.580Z,965.77
2017-07-21T04:00:14.575Z,965.78
2017-07-21T04:01:14.572Z,965.76
2017-07-21T04:02:14.568Z,965.78
2017-07-21T04:03:14.568Z,965.78
2017-07-21T04:04:14.564Z,965.79
2017-07-21T04:05:14.566Z,965.72
2017-07-21T04:06:14.565Z,965.76
2017-07-21T04:07:14.560Z,965.75
2017-07-21T04:08:14.556Z,965.75
2017-07-21T04:09:14.555Z,965.73
2017-07-21T04:10:14.554Z,965.75
2017-07-21T04:11:14.551Z,965.75
2017-07-21T04:12:14.552Z,965.73
2017-07-21T04:13:14.548Z,965.71
2017-07-21T04:14:14.545Z,965.71
2017-07-21T04:15:14.541Z,965.67
2017-07-21T04:16:14.541Z,965.68
2017-07-21T04:17:14.540Z,965.69
2017-07-21T04:18:14.536Z,965.66
2017-07-21T04:19:14.540Z,965.68
2017-07-21T04:20:14.533Z,965.66
2017-07-21T04:21:14.528Z,965.67
2017-07-21T04:22:14.529Z,965.69
2017-07-21T04:23:14.527Z,965.68
2017-07-21T04:24:14.524Z,965.68
2017-07-21T04:25:14.520Z,965.68
2017-07-21T04:26:14.521Z,965.65
2017-07-21T04:27:14.517Z,965.64
2017-07-21T04:28:14.516Z,965.64
2017-07-21T04:29:14.513Z,965.66
2017-07-21T04:30:14.512Z,965.62
2017-07-21T04:31:14.508Z,965.65
2017-07-21T04:32:14.506Z,965.65
2017-07-21T04:33:14.505Z,965.66
2017-07-21T04:34:14.502Z,965.63
2017-07-21T04:35:14.501Z,965.68
2017-07-21T04:36:14.498Z,965.64
2017-07-21T04:37:14.496Z,965.65
2017-07-21T04:38:14.494Z,965.66
2017-07-21T04:39:14.493Z,965.63
2017-07-21T04:40:14.495Z,965.65
2017-07-21T04:41:14.489Z,965.6
2017-07-21T04:42:14.486Z,965.61
2017-07-21T04:43:14.483Z,965.59
2017-07-21T04:44:14.483Z,965.58
2017-07-21T04:45:14.481Z,965.59
2017-07-21T04:46:14.480Z,965.54
2017-07-21T04:47:14.478Z,965.52
2017-07-21T04:48:14.474Z,965.56
2017-07-21T04:49:14.473Z,965.55
2017-07-21T04:50:14.472Z,965.54
2017-07-21T04:51:14.472Z,965.55
2017-07-21T04:52:14.471Z,965.56
2017-07-21T04:53:14.568Z,965.56
2017-07-21T04:54:14.466Z,965.56
2017-07-21T04:55:14.465Z,965.53
2017-07-21T04:56:14.463Z,965.57
2017-07-21T04:57:14.460Z,965.54
2017-07-21T04:58:14.458Z,965.54
2017-07-21T04:59:14.458Z,965.6
2017-07-21T05:00:14.459Z,965.62
2017-07-21T05:01:14.454Z,965.66
2017-07-21T05:02:14.453Z,965.66
2017-07-21T05:03:14.452Z,965.65
2017-07-21T05:04:14.453Z,965.66
2017-07-21T05:05:14.448Z,965.68
2017-07-21T05:06:14.447Z,965.67
2017-07-21T05:07:14.447Z,965.67
2017-07-21T05:08:14.445Z,965.68
2017-07-21T05:09:14.443Z,965.71
2017-07-21T05:10:14.442Z,965.65
2017-07-21T05:11:14.440Z,965.65
2017-07-21T05:12:14.438Z,965.66
2017-07-21T05:13:14.438Z,965.64
2017-07-21T05:14:14.437Z,965.66
2017-07-21T05:15:14.436Z,965.68
2017-07-21T05:16:14.434Z,965.7
2017-07-21T05:17:14.433Z,965.71
2017-07-21T05:18:14.433Z,965.72
2017-07-21T05:19:14.432Z,965.72
2017-07-21T05:20:14.432Z,965.66
2017-07-21T05:21:14.431Z,965.69
2017-07-21T05:22:14.428Z,965.64
2017-07-21T05:23:14.428Z,965.68
2017-07-21T05:24:14.427Z,965.67
2017-07-21T05:25:14.426Z,965.7
2017-07-21T05:26:14.427Z,965.71
2017-07-21T05:27:14.424Z,965.7
2017-07-21T05:28:14.423Z,965.7
2017-07-21T05:29:14.423Z,965.7
2017-07-21T05:30:14.424Z,965.73
2017-07-21T05:31:14.522Z,965.69
2017-07-21T05:32:14.521Z,965.69
2017-07-21T05:33:14.421Z,965.68
2017-07-21T05:34:14.421Z,965.65
2017-07-21T05:35:14.421Z,965.66
2017-07-21T05:36:14.421Z,965.64
2017-07-21T05:37:14.420Z,965.6
2017-07-21T05:38:14.419Z,965.63
2017-07-21T05:39:14.420Z,965.62
2017-07-21T05:40:14.419Z,965.62
2017-07-21T05:41:14.419Z,965.62
2017-07-21T05:42:14.417Z,965.58
2017-07-21T05:43:14.422Z,965.61
2017-07-21T05:44:14.421Z,965.6
2017-07-21T05:45:14.419Z,965.59
2017-07-21T05:46:14.420Z,965.61
2017-07-21T05:47:14.671Z,965.65
2017-07-21T05:48:14.421Z,965.6
2017-07-21T05:49:14.421Z,965.59
2017-07-21T05:50:14.422Z,965.56
2017-07-21T05:51:14.425Z,965.58
2017-07-21T05:52:14.423Z,965.55
2017-07-21T05:53:14.424Z,965.56
2017-07-21T05:54:14.425Z,965.55
2017-07-21T05:55:14.425Z,965.62
2017-07-21T05:56:14.426Z,965.6
2017-07-21T05:57:14.426Z,965.62
2017-07-21T05:58:14.431Z,965.61
2017-07-21T05:59:14.429Z,965.58
2017-07-21T06:00:14.430Z,965.6
2017-07-21T06:01:14.433Z,965.63
2017-07-21T06:02:14.434Z,965.65
2017-07-21T06:03:14.436Z,965.67
2017-07-21T06:04:14.437Z,965.67
2017-07-21T06:05:14.438Z,965.65
2017-07-21T06:06:14.448Z,965.67
2017-07-21T06:07:14.441Z,965.62
2017-07-21T06:08:14.442Z,965.65
2017-07-21T06:09:14.444Z,965.69
2017-07-21T06:10:14.445Z,965.72
2017-07-21T06:11:14.452Z,965.72
2017-07-21T06:12:14.450Z,965.71
2017-07-21T06:13:14.453Z,965.77
2017-07-21T06:14:14.454Z,965.77
2017-07-21T06:15:14.456Z,965.75
2017-07-21T06:16:14.460Z,965.72
2017-07-21T06:17:14.461Z,965.76
2017-07-21T06:18:14.462Z,965.74
2017-07-21T06:19:14.467Z,965.78
2017-07-21T06:20:14.468Z,965.74
2017-07-21T06:21:14.471Z,965.8
2017-07-21T06:22:14.472Z,965.79
2017-07-21T06:23:14.578Z,965.81
2017-07-21T06:24:14.494Z,965.82
2017-07-21T06:25:14.481Z,965.82
2017-07-21T06:26:14.485Z,965.83
2017-07-21T06:27:14.488Z,965.86
2017-07-21T06:28:14.491Z,965.85
2017-07-21T06:29:14.494Z,965.83
2017-07-21T06:30:14.496Z,965.87
2017-07-21T06:31:14.501Z,965.84
2017-07-21T06:32:14.505Z,965.81
2017-07-21T06:33:14.505Z,965.86
2017-07-21T06:34:14.510Z,965.86
2017-07-21T06:35:14.512Z,965.86
2017-07-21T06:36:14.516Z,965.8
2017-07-21T06:37:14.520Z,965.85
2017-07-21T06:38:14.524Z,965.83
2017-07-21T06:39:14.527Z,965.79
2017-07-21T06:40:14.530Z,965.79
2017-07-21T06:41:14.535Z,965.77
2017-07-21T06:42:14.556Z,965.77
2017-07-21T06:43:14.541Z,965.75
2017-07-21T06:44:14.545Z,965.74
2017-07-21T06:45:14.548Z,965.74
2017-07-21T06:46:14.551Z,965.71
2017-07-21T06:47:14.554Z,965.72
2017-07-21T06:48:14.557Z,965.71
2017-07-21T06:49:14.562Z,965.71
2017-07-21T06:50:14.565Z,965.72
2017-07-21T06:51:14.569Z,965.67
2017-07-21T06:52:14.574Z,965.67
2017-07-21T06:53:14.578Z,965.68
2017-07-21T06:54:14.581Z,965.67
2017-07-21T06:55:14.587Z,965.69
2017-07-21T06:56:14.590Z,965.61
2017-07-21T06:57:14.595Z,965.64
2017-07-21T06:58:14.597Z,965.6
2017-07-21T06:59:14.600Z,965.59
2017-07-21T07:00:14.605Z,965.51
2017-07-21T07:01:14.609Z,965.51
2017-07-21T07:02:14.612Z,965.49
2017-07-21T07:03:14.616Z,965.53
2017-07-21T07:04:14.620Z,965.49
2017-07-21T07:05:14.626Z,965.5
2017-07-21T07:06:14.629Z,965.52
2017-07-21T07:07:14.633Z,965.48
2017-07-21T07:08:14.638Z,965.49
2017-07-21T07:09:14.665Z,965.48
2017-07-21T07:10:14.744Z,965.47
2017-07-21T07:11:14.647Z,965.45
2017-07-21T07:12:14.653Z,965.44
2017-07-21T07:13:14.656Z,965.46
2017-07-21T07:14:14.660Z,965.47
2017-07-21T07:15:14.664Z,965.46
2017-07-21T07:16:14.667Z,965.5
2017-07-21T07:17:14.671Z,965.52
2017-07-21T07:18:14.674Z,965.49
2017-07-21T07:19:14.682Z,965.47
2017-07-21T07:20:14.681Z,965.47
2017-07-21T07:21:14.685Z,965.48
2017-07-21T07:22:14.689Z,965.45
2017-07-21T07:23:14.694Z,965.43
2017-07-21T07:24:14.698Z,965.45
2017-07-21T07:25:14.699Z,965.45
2017-07-21T07:26:14.703Z,965.41
2017-07-21T07:27:14.705Z,965.52
2017-07-21T07:28:14.710Z,965.5
2017-07-21T07:29:14.713Z,965.5
2017-07-21T07:30:14.714Z,965.51
2017-07-21T07:31:14.717Z,965.49
2017-07-21T07:32:14.719Z,965.5
2017-07-21T07:33:14.724Z,965.45
2017-07-21T07:34:14.727Z,965.5
2017-07-21T07:35:14.730Z,965.49
2017-07-21T07:36:14.732Z,965.46
2017-07-21T07:37:14.735Z,965.49
2017-07-21T07:38:14.738Z,965.43
2017-07-21T07:39:14.739Z,965.46
2017-07-21T07:40:14.843Z,965.45
2017-07-21T07:41:14.745Z,965.48
2017-07-21T07:42:14.746Z,965.46
2017-07-21T07:43:14.750Z,965.45
2017-07-21T07:44:14.752Z,965.44
2017-07-21T07:45:14.757Z,965.41
2017-07-21T07:46:14.758Z,965.38
2017-07-21T07:47:14.760Z,965.38
2017-07-21T07:48:14.763Z,965.33
2017-07-21T07:49:14.764Z,965.35
2017-07-21T07:50:14.767Z,965.37
2017-07-21T07:51:14.769Z,965.37
2017-07-21T07:52:14.772Z,965.36
2017-07-21T07:53:14.774Z,965.35
2017-07-21T07:54:14.776Z,965.37
2017-07-21T07:55:14.880Z,965.37
2017-07-21T07:56:14.780Z,965.39
2017-07-21T07:57:14.781Z,965.33
2017-07-21T07:58:14.884Z,965.35
2017-07-21T07:59:14.787Z,965.31
2017-07-21T08:00:14.787Z,965.32
2017-07-21T08:01:14.891Z,965.3
2017-07-21T08:02:14.794Z,965.32
2017-07-21T08:03:14.795Z,965.32
2017-07-21T08:04:14.796Z,965.32
2017-07-21T08:05:14.799Z,965.33
2017-07-21T08:06:14.901Z,965.3
2017-07-21T08:07:14.804Z,965.26
2017-07-21T08:08:14.804Z,965.26
2017-07-21T08:09:14.806Z,965.26
2017-07-21T08:10:14.809Z,965.27
2017-07-21T08:11:14.809Z,965.29
2017-07-21T08:12:14.812Z,965.25
2017-07-21T08:13:14.818Z,965.22
2017-07-21T08:14:14.916Z,965.28
2017-07-21T08:15:14.816Z,965.23
2017-07-21T08:16:14.818Z,965.25
2017-07-21T08:17:14.819Z,965.25
2017-07-21T08:18:14.821Z,965.22
2017-07-21T08:19:14.823Z,965.22
2017-07-21T08:20:14.823Z,965.24
2017-07-21T08:21:14.825Z,965.21
2017-07-21T08:22:14.826Z,965.22
2017-07-21T08:23:14.828Z,965.23
2017-07-21T08:24:14.829Z,965.15
2017-07-21T08:25:14.830Z,965.17
2017-07-21T08:26:14.830Z,965.11
2017-07-21T08:27:14.831Z,965.1
2017-07-21T08:28:14.833Z,965.09
2017-07-21T08:29:14.835Z,965.1
2017-07-21T08:30:14.836Z,965.1
2017-07-21T08:31:14.836Z,965.1
2017-07-21T08:32:14.837Z,965.07
2017-07-21T08:33:14.838Z,965.08
2017-07-21T08:34:14.838Z,965.04
2017-07-21T08:35:14.841Z,965.02
2017-07-21T08:36:14.842Z,965.03
2017-07-21T08:37:14.842Z,965
2017-07-21T08:38:14.843Z,965
2017-07-21T08:39:14.845Z,965.01
2017-07-21T08:40:14.844Z,965.04
2017-07-21T08:41:14.845Z,965.03
2017-07-21T08:42:14.846Z,965.01
2017-07-21T08:43:14.847Z,964.99
2017-07-21T08:44:14.850Z,964.98
2017-07-21T08:45:14.847Z,964.98
2017-07-21T08:46:14.849Z,964.98
2017-07-21T08:47:14.853Z,964.93
2017-07-21T08:48:14.850Z,964.9
2017-07-21T08:49:14.850Z,964.87
2017-07-21T08:50:14.852Z,964.85
2017-07-21T08:51:14.852Z,964.86
2017-07-21T08:52:14.853Z,964.81
2017-07-21T08:53:14.852Z,964.83
2017-07-21T08:54:14.954Z,964.77
2017-07-21T08:55:14.858Z,964.75
2017-07-21T08:56:14.853Z,964.73
2017-07-21T08:57:14.854Z,964.76
2017-07-21T08:58:14.855Z,964.75
2017-07-21T08:59:14.855Z,964.79
2017-07-21T09:00:14.855Z,964.76
2017-07-21T09:01:14.855Z,964.73
2017-07-21T09:02:14.857Z,964.73
2017-07-21T09:03:14.856Z,964.75
2017-07-21T09:04:14.859Z,964.77
2017-07-21T09:05:14.857Z,964.75
2017-07-21T09:06:14.857Z,964.78
2017-07-21T09:07:14.859Z,964.78
2017-07-21T09:08:14.860Z,964.82
2017-07-21T09:09:14.860Z,964.8
2017-07-21T09:10:14.858Z,964.78
2017-07-21T09:11:14.859Z,964.81
2017-07-21T09:12:14.863Z,964.8
2017-07-21T09:13:14.861Z,964.81
2017-07-21T09:14:14.859Z,964.79
2017-07-21T09:15:14.860Z,964.8
2017-07-21T09:16:14.959Z,964.76
2017-07-21T09:17:14.859Z,964.78
2017-07-21T09:18:14.860Z,964.77
2017-07-21T09:19:14.861Z,964.77
2017-07-21T09:20:14.861Z,964.77
2017-07-21T09:21:14.864Z,964.77
2017-07-21T09:22:14.862Z,964.74
2017-07-21T09:23:14.862Z,964.75
2017-07-21T09:24:14.862Z,964.7
2017-07-21T09:25:14.862Z,964.68
2017-07-21T09:26:14.862Z,964.71
2017-07-21T09:27:14.862Z,964.68
2017-07-21T09:28:14.861Z,964.67
2017-07-21T09:29:14.863Z,964.67
2017-07-21T09:30:14.863Z,964.65
2017-07-21T09:31:14.861Z,964.62
2017-07-21T09:32:14.864Z,964.59
2017-07-21T09:33:14.862Z,964.57
2017-07-21T09:34:14.864Z,964.57
2017-07-21T09:35:14.863Z,964.53
2017-07-21T09:36:14.863Z,964.48
2017-07-21T09:37:14.865Z,964.48
2017-07-21T09:38:14.865Z,964.46
2017-07-21T09:39:14.870Z,964.46
2017-07-21T09:40:14.863Z,964.46
2017-07-21T09:41:14.865Z,964.45
2017-07-21T09:42:14.863Z,964.42
2017-07-21T09:43:14.864Z,964.47
2017-07-21T09:44:14.965Z,964.44
2017-07-21T09:45:14.865Z,964.44
2017-07-21T09:46:14.863Z,964.5
2017-07-21T09:47:14.866Z,964.44
2017-07-21T09:48:14.864Z,964.44
2017-07-21T09:49:14.865Z,964.44
2017-07-21T09:50:14.865Z,964.4
2017-07-21T09:51:14.865Z,964.38
2017-07-21T09:52:14.867Z,964.44
2017-07-21T09:53:14.865Z,964.4
2017-07-21T09:54:14.865Z,964.39
2017-07-21T09:55:14.864Z,964.41
2017-07-21T09:56:14.865Z,964.42
2017-07-21T09:57:14.865Z,964.45
2017-07-21T09:58:14.864Z,964.44
2017-07-21T09:59:14.865Z,964.39
2017-07-21T10:00:14.866Z,964.42
2017-07-21T10:01:14.864Z,964.45
2017-07-21T10:02:14.864Z,964.43
2017-07-21T10:03:14.865Z,964.41
2017-07-21T10:04:14.866Z,964.45
2017-07-21T10:05:14.865Z,964.43
2017-07-21T10:06:14.866Z,964.4
2017-07-21T10:07:14.865Z,964.39
2017-07-21T10:08:14.864Z,964.39
2017-07-21T10:09:14.865Z,964.37
2017-07-21T10:10:14.865Z,964.36
2017-07-21T10:11:14.865Z,964.32
2017-07-21T10:12:14.864Z,964.32
2017-07-21T10:13:14.866Z,964.32
2017-07-21T10:14:14.865Z,964.32
2017-07-21T10:15:14.966Z,964.28
2017-07-21T10:16:14.864Z,964.29
2017-07-21T10:17:14.866Z,964.27
2017-07-21T10:18:14.866Z,964.24
2017-07-21T10:19:14.865Z,964.24
2017-07-21T10:20:14.865Z,964.25
2017-07-21T10:21:14.865Z,964.17
2017-07-21T10:22:14.865Z,964.15
2017-07-21T10:23:14.865Z,964.16
2017-07-21T10:24:14.864Z,964.16
2017-07-21T10:25:14.866Z,964.15
2017-07-21T10:26:14.863Z,964.16
2017-07-21T10:27:14.865Z,964.12
2017-07-21T10:28:14.863Z,964.11
2017-07-21T10:29:14.863Z,964.09
2017-07-21T10:30:14.864Z,964.11
2017-07-21T10:31:14.865Z,964.11
2017-07-21T10:32:14.864Z,964.06
2017-07-21T10:33:14.865Z,964.08
2017-07-21T10:34:14.864Z,964.07
2017-07-21T10:35:14.864Z,964.02
2017-07-21T10:36:14.863Z,964.05
2017-07-21T10:37:15.014Z,963.99
2017-07-21T10:38:14.863Z,964.02
2017-07-21T10:39:14.863Z,964
2017-07-21T10:40:14.864Z,964
2017-07-21T10:41:14.863Z,964
2017-07-21T10:42:14.964Z,964.01
2017-07-21T10:43:14.863Z,963.95
2017-07-21T10:44:14.863Z,963.96
2017-07-21T10:45:14.862Z,963.95
2017-07-21T10:46:14.863Z,963.93
2017-07-21T10:47:14.963Z,963.91
2017-07-21T10:48:14.864Z,963.91
2017-07-21T10:49:14.863Z,963.89
2017-07-21T10:50:14.864Z,963.92
2017-07-21T10:51:14.963Z,963.9
2017-07-21T10:52:14.861Z,963.93
2017-07-21T10:53:14.863Z,963.87
2017-07-21T10:54:14.861Z,963.87
2017-07-21T10:55:14.863Z,963.84
2017-07-21T10:56:14.862Z,963.82
2017-07-21T10:57:14.862Z,963.81
2017-07-21T10:58:14.862Z,963.78
2017-07-21T10:59:14.862Z,963.78
2017-07-21T11:00:14.861Z,963.81
2017-07-21T11:01:14.863Z,963.78
2017-07-21T11:02:14.861Z,963.82
2017-07-21T11:03:14.861Z,963.8
2017-07-21T11:04:14.861Z,963.79
2017-07-21T11:05:14.861Z,963.74
2017-07-21T11:06:14.859Z,963.77
2017-07-21T11:07:14.863Z,963.75
2017-07-21T11:08:14.859Z,963.73
2017-07-21T11:09:14.860Z,963.78
2017-07-21T11:10:14.868Z,963.72
2017-07-21T11:11:14.861Z,963.71
2017-07-21T11:12:14.862Z,963.74
2017-07-21T11:13:14.861Z,963.69
2017-07-21T11:14:14.861Z,963.7
2017-07-21T11:15:14.861Z,963.65
2017-07-21T11:16:14.861Z,963.64
2017-07-21T11:17:14.860Z,963.6
2017-07-21T11:18:14.859Z,963.61
2017-07-21T11:19:14.860Z,963.62
2017-07-21T11:20:14.861Z,963.62
2017-07-21T11:21:14.859Z,963.62
2017-07-21T11:22:14.859Z,963.59
2017-07-21T11:23:14.859Z,963.64
2017-07-21T11:24:14.860Z,963.55
2017-07-21T11:25:14.859Z,963.63
2017-07-21T11:26:14.860Z,963.57
2017-07-21T11:27:14.859Z,963.59
2017-07-21T11:28:14.859Z,963.57
2017-07-21T11:29:14.860Z,963.58
2017-07-21T11:30:14.859Z,963.59
2017-07-21T11:31:14.859Z,963.6
2017-07-21T11:32:14.857Z,963.56
2017-07-21T11:33:14.860Z,963.58
2017-07-21T11:34:14.858Z,963.56
2017-07-21T11:35:14.858Z,963.57
2017-07-21T11:36:14.866Z,963.52
2017-07-21T11:37:14.958Z,963.48
2017-07-21T11:38:14.859Z,963.53
2017-07-21T11:39:14.857Z,963.49
2017-07-21T11:40:14.859Z,963.5
2017-07-21T11:41:14.857Z,963.5
2017-07-21T11:42:14.858Z,963.5
2017-07-21T11:43:14.858Z,963.47
2017-07-21T11:44:14.856Z,963.5
2017-07-21T11:45:14.856Z,963.48
2017-07-21T11:46:14.856Z,963.47
2017-07-21T11:47:14.957Z,963.43
2017-07-21T11:48:14.857Z,963.42
2017-07-21T11:49:14.858Z,963.38
2017-07-21T11:50:14.857Z,963.4
2017-07-21T11:51:14.856Z,963.4
2017-07-21T11:52:14.856Z,963.37
2017-07-21T11:53:14.856Z,963.39
2017-07-21T11:54:14.857Z,963.34
2017-07-21T11:55:14.856Z,963.29
2017-07-21T11:56:14.857Z,963.35
2017-07-21T11:57:14.857Z,963.37
2017-07-21T11:58:14.855Z,963.37
2017-07-21T11:59:14.855Z,963.39
2017-07-21T12:00:14.856Z,963.43
2017-07-21T12:01:14.857Z,963.46
2017-07-21T12:02:14.857Z,963.43
2017-07-21T12:03:14.856Z,963.4
2017-07-21T12:04:14.857Z,963.39
2017-07-21T12:05:14.856Z,963.39
2017-07-21T12:06:14.855Z,963.36
2017-07-21T12:07:14.857Z,963.31
2017-07-21T12:08:14.855Z,963.31
2017-07-21T12:09:14.854Z,963.27
2017-07-21T12:10:14.855Z,963.29
2017-07-21T12:11:14.855Z,963.26
2017-07-21T12:12:14.857Z,963.25
2017-07-21T12:13:14.855Z,963.29
2017-07-21T12:14:14.856Z,963.31
2017-07-21T12:15:14.856Z,963.3
2017-07-21T12:16:14.854Z,963.27
2017-07-21T12:17:14.857Z,963.26
2017-07-21T12:18:14.856Z,963.28
2017-07-21T12:19:14.857Z,963.29
2017-07-21T12:20:14.955Z,963.3
2017-07-21T12:21:14.857Z,963.26
2017-07-21T12:22:14.856Z,963.25
2017-07-21T12:23:14.857Z,963.23
2017-07-21T12:24:14.855Z,963.23
2017-07-21T12:25:14.858Z,963.18
2017-07-21T12:26:14.858Z,963.18
2017-07-21T12:27:14.857Z,963.18
2017-07-21T12:28:14.858Z,963.19
2017-07-21T12:29:14.856Z,963.17
2017-07-21T12:30:14.859Z,963.17
2017-07-21T12:31:14.858Z,963.17